createdAt,value
2023-02-25T00:02:59.239Z,70.64
2023-02-25T00:07:55.545Z,70.43
2023-02-25T00:12:46.663Z,70.19
2023-02-25T00:17:41.579Z,69.63
2023-02-25T00:22:32.314Z,70.29
2023-02-25T00:27:36.075Z,70.31
2023-02-25T00:32:39.155Z,70.45
2023-02-25T00:37:30.867Z,70.37
2023-02-25T00:42:21.429Z,70.50
2023-02-25T00:47:15.657Z,70.14
2023-02-25T00:52:15.409Z,70.74
2023-02-25T01:02:19.007Z,71.30
2023-02-25T01:07:16.008Z,71.04
2023-02-25T01:12:10.163Z,69.90
2023-02-25T01:17:03.514Z,68.57
2023-02-25T01:22:04.488Z,67.72
2023-02-25T01:27:01.414Z,67.15
2023-02-25T01:31:56.400Z,67.08
2023-02-25T01:36:49.333Z,67.63
2023-02-25T01:41:50.256Z,68.44
2023-02-25T01:46:42.021Z,68.66
2023-02-25T01:51:42.421Z,69.89
2023-02-25T01:56:33.554Z,70.00
2023-02-25T02:01:33.500Z,70.23
2023-02-25T02:06:28.757Z,70.13
2023-02-25T02:11:21.282Z,70.12
2023-02-25T02:16:21.139Z,69.57
2023-02-25T02:21:24.413Z,69.47
2023-02-25T02:26:31.164Z,69.44
2023-02-25T02:31:36.569Z,69.50
2023-02-25T02:36:35.410Z,69.94
2023-02-25T02:41:31.906Z,69.89
2023-02-25T02:46:26.468Z,69.69
2023-02-25T02:51:23.811Z,68.95
2023-02-25T02:56:16.955Z,68.49
2023-02-25T03:01:10.367Z,67.03
2023-02-25T03:06:01.347Z,66.98
2023-02-25T03:10:57.225Z,66.96
2023-02-25T03:15:49.817Z,67.45
2023-02-25T03:20:48.147Z,67.81
2023-02-25T03:25:47.875Z,69.88
2023-02-25T03:30:47.183Z,70.32
2023-02-25T03:35:41.284Z,71.78
2023-02-25T03:40:36.154Z,72.75
2023-02-25T03:45:27.519Z,72.75
2023-02-25T03:50:23.999Z,72.46
2023-02-25T03:55:20.039Z,71.27
2023-02-25T04:00:16.932Z,70.56
2023-02-25T04:05:13.796Z,69.64
2023-02-25T04:10:20.735Z,70.30
2023-02-25T04:15:20.550Z,70.28
2023-02-25T04:20:15.658Z,70.46
2023-02-25T04:25:12.374Z,70.25
2023-02-25T04:30:02.834Z,70.51
2023-02-25T04:34:58.350Z,69.68
2023-02-25T04:39:53.063Z,69.48
2023-02-25T04:44:45.718Z,69.40
2023-02-25T04:49:45.535Z,69.68
2023-02-25T04:54:42.482Z,69.95
2023-02-25T04:59:33.528Z,70.45
2023-02-25T05:04:27.727Z,70.75
2023-02-25T05:09:21.601Z,69.54
2023-02-25T05:14:17.455Z,69.95
2023-02-25T05:19:11.277Z,69.83
2023-02-25T05:24:04.525Z,70.09
2023-02-25T05:28:56.718Z,70.57
2023-02-25T05:34:01.085Z,70.41
2023-02-25T05:39:01.103Z,70.88
2023-02-25T05:43:57.294Z,71.53
2023-02-25T05:48:55.027Z,71.52
2023-02-25T05:53:49.297Z,72.04
2023-02-25T05:58:45.248Z,72.39
2023-02-25T06:03:37.240Z,71.92
2023-02-25T06:08:38.621Z,71.96
2023-02-25T06:13:33.311Z,71.51
2023-02-25T06:18:27.769Z,70.92
2023-02-25T06:23:22.759Z,70.78
2023-02-25T06:28:16.074Z,70.35
2023-02-25T06:33:05.651Z,70.24
2023-02-25T06:37:57.918Z,69.91
2023-02-25T06:42:50.529Z,69.35
2023-02-25T06:47:47.503Z,69.13
2023-02-25T06:52:47.866Z,69.12
2023-02-25T06:57:38.381Z,68.72
2023-02-25T07:02:30.484Z,69.39
2023-02-25T07:07:29.848Z,69.79
2023-02-25T07:12:22.239Z,70.11
2023-02-25T07:17:18.386Z,70.42
2023-02-25T07:22:09.959Z,69.27
2023-02-25T07:27:04.449Z,67.87
2023-02-25T07:31:56.671Z,67.13
2023-02-25T07:36:48.247Z,66.84
2023-02-25T07:41:41.507Z,66.93
2023-02-25T07:46:41.645Z,67.22
2023-02-25T07:51:34.316Z,68.47
2023-02-25T07:56:27.842Z,68.88
2023-02-25T08:01:27.608Z,69.07
2023-02-25T08:06:22.115Z,68.89
2023-02-25T08:11:13.178Z,68.95
2023-02-25T08:16:03.390Z,68.69
2023-02-25T08:20:56.827Z,69.02
2023-02-25T08:26:00.772Z,68.79
2023-02-25T08:30:51.781Z,68.23
2023-02-25T08:35:53.179Z,67.47
2023-02-25T08:40:46.642Z,66.75
2023-02-25T08:45:42.644Z,66.58
2023-02-25T08:50:42.302Z,67.52
2023-02-25T08:55:38.822Z,67.22
2023-02-25T09:00:31.324Z,66.33
2023-02-25T09:05:35.571Z,66.41
2023-02-25T09:10:48.096Z,66.42
2023-02-25T09:15:43.536Z,64.06
2023-02-25T09:20:35.987Z,61.56
2023-02-25T09:25:32.216Z,61.43
2023-02-25T09:30:26.231Z,58.88
2023-02-25T09:35:25.505Z,59.83
2023-02-25T09:40:28.127Z,64.47
2023-02-25T09:45:23.034Z,66.89
2023-02-25T09:50:23.837Z,68.49
2023-02-25T09:55:28.407Z,69.54
2023-02-25T10:00:25.351Z,68.26
2023-02-25T10:05:26.508Z,68.53
2023-02-25T10:10:30.776Z,69.24
2023-02-25T10:15:37.095Z,68.93
2023-02-25T10:20:39.511Z,67.07
2023-02-25T10:25:35.015Z,66.98
2023-02-25T10:30:34.037Z,64.02
2023-02-25T10:35:31.141Z,61.91
2023-02-25T10:40:25.378Z,58.79
2023-02-25T10:45:23.590Z,64.56
2023-02-25T10:50:44.497Z,64.38
2023-02-25T10:55:59.018Z,61.26
2023-02-25T11:01:02.662Z,65.73
2023-02-25T11:06:12.046Z,65.44
2023-02-25T11:11:27.082Z,63.57
2023-02-25T11:16:21.351Z,65.65
2023-02-25T11:21:16.498Z,65.57
2023-02-25T11:26:16.443Z,63.86
2023-02-25T11:31:25.775Z,63.93
2023-02-25T11:36:27.633Z,64.65
2023-02-25T11:41:27.637Z,64.38
2023-02-25T11:46:34.853Z,58.15
2023-02-25T11:51:41.982Z,58.38
2023-02-25T11:56:51.904Z,57.98
2023-02-25T12:02:01.885Z,58.43
2023-02-25T12:07:29.480Z,56.21
2023-02-25T12:12:38.387Z,50.21
2023-02-25T12:17:42.622Z,50.66
2023-02-25T12:22:46.968Z,49.99
2023-02-25T12:27:51.602Z,51.38
2023-02-25T12:32:55.445Z,50.88
2023-02-25T12:37:59.368Z,49.73
2023-02-25T12:42:58.450Z,52.35
2023-02-25T12:47:57.899Z,53.66
2023-02-25T12:52:55.848Z,52.01
2023-02-25T12:57:58.680Z,54.08
2023-02-25T13:03:08.987Z,53.61
2023-02-25T13:08:28.302Z,52.43
2023-02-25T13:13:35.106Z,51.97
2023-02-25T13:18:31.614Z,53.99
2023-02-25T13:23:34.031Z,47.97
2023-02-25T13:28:33.030Z,42.57
2023-02-25T13:33:27.146Z,40.55
2023-02-25T13:38:31.016Z,41.52
2023-02-25T13:43:38.516Z,41.22
2023-02-25T13:48:41.895Z,42.77
2023-02-25T13:53:51.106Z,42.28
2023-02-25T13:58:54.664Z,42.98
2023-02-25T14:03:59.091Z,45.50
2023-02-25T14:09:07.148Z,41.93
2023-02-25T14:14:09.599Z,41.18
2023-02-25T14:19:08.197Z,42.20
2023-02-25T14:24:06.949Z,41.23
2023-02-25T14:29:06.757Z,41.22
2023-02-25T14:34:14.023Z,42.08
2023-02-25T14:39:20.599Z,40.59
2023-02-25T14:44:15.358Z,41.99
2023-02-25T14:49:10.183Z,42.86
2023-02-25T14:54:08.826Z,40.93
2023-02-25T14:59:28.003Z,41.86
2023-02-25T15:04:29.109Z,43.43
2023-02-25T15:09:27.946Z,43.18
2023-02-25T15:14:35.315Z,44.93
2023-02-25T15:19:43.297Z,45.53
2023-02-25T15:24:40.384Z,45.03
2023-02-25T15:29:46.825Z,45.79
2023-02-25T15:34:40.121Z,46.09
2023-02-25T15:39:44.706Z,43.15
2023-02-25T15:44:41.424Z,44.15
2023-02-25T15:49:33.387Z,41.72
2023-02-25T15:54:37.943Z,42.36
2023-02-25T15:59:45.203Z,41.87
2023-02-25T16:04:58.669Z,42.39
2023-02-25T16:09:53.878Z,42.39
2023-02-25T16:14:44.209Z,47.32
2023-02-25T16:19:40.257Z,47.24
2023-02-25T16:24:32.799Z,45.68
2023-02-25T16:29:40.080Z,45.74
2023-02-25T16:34:36.432Z,46.36
2023-02-25T16:39:31.548Z,46.57
2023-02-25T16:44:29.637Z,46.85
2023-02-25T16:49:36.984Z,46.90
2023-02-25T16:54:34.661Z,47.07
2023-02-25T16:59:34.109Z,47.35
2023-02-25T17:04:39.795Z,47.46
2023-02-25T17:09:33.104Z,47.70
2023-02-25T17:14:46.678Z,48.43
2023-02-25T17:19:45.173Z,49.32
2023-02-25T17:24:36.934Z,50.08
2023-02-25T17:29:41.525Z,51.02
2023-02-25T17:34:35.422Z,51.52
2023-02-25T17:39:34.814Z,51.06
2023-02-25T17:44:49.267Z,51.29
2023-02-25T17:49:40.774Z,51.28
2023-02-25T17:54:37.201Z,51.17
2023-02-25T17:59:48.727Z,51.51
2023-02-25T18:04:54.007Z,51.57
2023-02-25T18:09:50.329Z,52.01
2023-02-25T18:14:48.270Z,51.97
2023-02-25T18:19:41.660Z,52.30
2023-02-25T18:24:38.296Z,52.72
2023-02-25T18:29:35.035Z,53.20
2023-02-25T18:34:37.022Z,53.55
2023-02-25T18:39:31.706Z,53.92
2023-02-25T18:44:26.512Z,54.46
2023-02-25T18:49:25.244Z,54.97
2023-02-25T18:54:38.725Z,55.45
2023-02-25T18:59:30.600Z,55.84
2023-02-25T19:04:33.920Z,56.47
2023-02-25T19:09:30.584Z,56.78
2023-02-25T19:14:23.207Z,57.38
2023-02-25T19:19:17.818Z,58.19
2023-02-25T19:24:14.365Z,58.35
2023-02-25T19:29:08.083Z,59.14
2023-02-25T19:34:04.258Z,59.28
2023-02-25T19:39:02.284Z,60.09
2023-02-25T19:43:57.642Z,60.04
2023-02-25T19:48:54.566Z,60.70
2023-02-25T19:53:47.583Z,61.08
2023-02-25T19:58:44.223Z,61.57
2023-02-25T20:03:40.592Z,61.73
2023-02-25T20:08:53.199Z,61.94
2023-02-25T20:13:48.227Z,62.41
2023-02-25T20:19:07.913Z,62.61
2023-02-25T20:24:03.190Z,63.26
2023-02-25T20:28:56.894Z,63.64
2023-02-25T20:33:59.633Z,64.04
2023-02-25T20:39:13.140Z,64.33
2023-02-25T20:44:14.031Z,64.67
2023-02-25T20:49:08.299Z,64.87
2023-02-25T20:54:12.176Z,64.99
2023-02-25T20:59:08.369Z,64.92
2023-02-25T21:04:16.987Z,64.92
2023-02-25T21:09:19.763Z,65.09
2023-02-25T21:14:12.504Z,65.25
2023-02-25T21:19:04.721Z,64.79
2023-02-25T21:24:00.580Z,65.07
2023-02-25T21:28:54.568Z,64.93
2023-02-25T21:33:46.991Z,64.87
2023-02-25T21:38:41.099Z,64.54
2023-02-25T21:43:37.187Z,65.12
2023-02-25T21:48:34.999Z,64.76
2023-02-25T21:53:30.273Z,64.67
2023-02-25T21:58:27.933Z,64.78
2023-02-25T22:03:20.504Z,64.73
2023-02-25T22:08:11.245Z,64.90
2023-02-25T22:13:04.480Z,64.97
2023-02-25T22:17:59.685Z,65.05
2023-02-25T22:22:59.511Z,65.02
2023-02-25T22:27:53.098Z,64.75
2023-02-25T22:32:50.862Z,64.74
2023-02-25T22:37:42.370Z,64.75
2023-02-25T22:42:40.049Z,65.03
2023-02-25T22:47:33.199Z,64.98
2023-02-25T22:52:23.202Z,65.30
2023-02-25T22:57:13.502Z,65.50
2023-02-25T23:02:10.538Z,65.54
2023-02-25T23:07:13.763Z,65.86
2023-02-25T23:12:06.204Z,66.32
2023-02-25T23:17:09.680Z,66.57
2023-02-25T23:22:04.605Z,66.91
2023-02-25T23:27:01.818Z,67.30
2023-02-25T23:31:52.761Z,67.60
2023-02-25T23:36:47.046Z,67.74
2023-02-25T23:41:41.813Z,67.81
2023-02-25T23:46:37.922Z,68.24
2023-02-25T23:51:39.251Z,68.26
2023-02-25T23:56:37.498Z,68.40
